sensor_id;sensor_type;location;lat;lon;timestamp;P1;durP1;ratioP1;P2;durP2;ratioP2
5195;SDS011;2617;51.006;12.436;2024-02-14T00:04:11;6.53;;;2.50;;
5195;SDS011;2617;51.006;12.436;2024-02-14T00:09:14;2.67;;;2.43;;
5195;SDS011;2617;51.006;12.436;2024-02-14T00:14:17;4.17;;;3.23;;
5195;SDS011;2617;51.006;12.436;2024-02-14T00:19:20;2.85;;;2.62;;
5195;SDS011;2617;51.006;12.436;2024-02-14T00:24:22;3.87;;;2.95;;
5195;SDS011;2617;51.006;12.436;2024-02-14T00:29:25;2.40;;;2.00;;
5195;SDS011;2617;51.006;12.436;2024-02-14T00:34:27;3.90;;;2.40;;
5195;SDS011;2617;51.006;12.436;2024-02-14T00:39:30;3.30;;;2.90;;
5195;SDS011;2617;51.006;12.436;2024-02-14T00:44:33;2.80;;;2.20;;
5195;SDS011;2617;51.006;12.436;2024-02-14T00:49:35;3.60;;;2.40;;
5195;SDS011;2617;51.006;12.436;2024-02-14T00:54:38;4.33;;;2.30;;
5195;SDS011;2617;51.006;12.436;2024-02-14T00:59:41;3.03;;;2.30;;
5195;SDS011;2617;51.006;12.436;2024-02-14T01:04:43;2.95;;;2.20;;
5195;SDS011;2617;51.006;12.436;2024-02-14T01:09:46;2.62;;;2.37;;
5195;SDS011;2617;51.006;12.436;2024-02-14T01:14:49;2.20;;;2.10;;
5195;SDS011;2617;51.006;12.436;2024-02-14T01:19:51;3.37;;;3.08;;
5195;SDS011;2617;51.006;12.436;2024-02-14T01:24:53;5.90;;;2.60;;
5195;SDS011;2617;51.006;12.436;2024-02-14T01:29:56;4.20;;;2.42;;
5195;SDS011;2617;51.006;12.436;2024-02-14T01:34:58;3.30;;;1.90;;
5195;SDS011;2617;51.006;12.436;2024-02-14T01:40:01;3.00;;;2.60;;
5195;SDS011;2617;51.006;12.436;2024-02-14T01:45:03;3.13;;;2.10;;
5195;SDS011;2617;51.006;12.436;2024-02-14T01:50:08;2.13;;;2.00;;
5195;SDS011;2617;51.006;12.436;2024-02-14T01:55:10;2.20;;;2.00;;
5195;SDS011;2617;51.006;12.436;2024-02-14T02:00:13;2.37;;;2.03;;
5195;SDS011;2617;51.006;12.436;2024-02-14T02:05:17;6.10;;;2.47;;
5195;SDS011;2617;51.006;12.436;2024-02-14T02:10:19;2.50;;;1.70;;
5195;SDS011;2617;51.006;12.436;2024-02-14T02:15:22;4.95;;;2.95;;
5195;SDS011;2617;51.006;12.436;2024-02-14T02:20:24;2.95;;;1.90;;
5195;SDS011;2617;51.006;12.436;2024-02-14T02:25:26;4.80;;;1.50;;
5195;SDS011;2617;51.006;12.436;2024-02-14T02:30:29;1.92;;;1.70;;
5195;SDS011;2617;51.006;12.436;2024-02-14T02:35:31;2.17;;;1.90;;
5195;SDS011;2617;51.006;12.436;2024-02-14T02:40:34;2.47;;;1.80;;
5195;SDS011;2617;51.006;12.436;2024-02-14T02:45:36;1.73;;;1.40;;
5195;SDS011;2617;51.006;12.436;2024-02-14T02:50:39;2.90;;;2.00;;
5195;SDS011;2617;51.006;12.436;2024-02-14T02:55:42;1.67;;;1.57;;
5195;SDS011;2617;51.006;12.436;2024-02-14T03:00:44;1.93;;;1.70;;
5195;SDS011;2617;51.006;12.436;2024-02-14T03:05:48;2.20;;;1.70;;
5195;SDS011;2617;51.006;12.436;2024-02-14T03:10:51;5.90;;;1.90;;
5195;SDS011;2617;51.006;12.436;2024-02-14T03:15:54;2.60;;;2.17;;
5195;SDS011;2617;51.006;12.436;2024-02-14T03:20:56;2.20;;;1.40;;
5195;SDS011;2617;51.006;12.436;2024-02-14T03:25:59;1.60;;;1.50;;
5195;SDS011;2617;51.006;12.436;2024-02-14T03:31:01;1.50;;;1.40;;
5195;SDS011;2617;51.006;12.436;2024-02-14T03:36:04;1.60;;;1.60;;
5195;SDS011;2617;51.006;12.436;2024-02-14T03:41:07;2.03;;;1.30;;
5195;SDS011;2617;51.006;12.436;2024-02-14T03:46:09;2.47;;;1.67;;
5195;SDS011;2617;51.006;12.436;2024-02-14T03:51:12;1.30;;;1.20;;
5195;SDS011;2617;51.006;12.436;2024-02-14T03:56:14;1.73;;;1.60;;
5195;SDS011;2617;51.006;12.436;2024-02-14T04:01:18;1.30;;;1.30;;
5195;SDS011;2617;51.006;12.436;2024-02-14T04:06:21;2.00;;;1.40;;
5195;SDS011;2617;51.006;12.436;2024-02-14T04:11:23;1.40;;;1.08;;
5195;SDS011;2617;51.006;12.436;2024-02-14T04:16:27;2.20;;;1.10;;
5195;SDS011;2617;51.006;12.436;2024-02-14T04:21:29;1.62;;;1.37;;
5195;SDS011;2617;51.006;12.436;2024-02-14T04:26:32;0.90;;;0.90;;
5195;SDS011;2617;51.006;12.436;2024-02-14T04:31:34;1.03;;;1.03;;
5195;SDS011;2617;51.006;12.436;2024-02-14T04:36:36;5.53;;;1.40;;
5195;SDS011;2617;51.006;12.436;2024-02-14T04:41:39;1.47;;;1.37;;
5195;SDS011;2617;51.006;12.436;2024-02-14T04:46:42;2.57;;;1.00;;
5195;SDS011;2617;51.006;12.436;2024-02-14T04:51:44;1.27;;;0.90;;
5195;SDS011;2617;51.006;12.436;2024-02-14T04:56:47;1.30;;;1.10;;
5195;SDS011;2617;51.006;12.436;2024-02-14T05:01:51;1.82;;;1.50;;
5195;SDS011;2617;51.006;12.436;2024-02-14T05:06:53;1.70;;;1.60;;
5195;SDS011;2617;51.006;12.436;2024-02-14T05:11:56;1.10;;;1.03;;
5195;SDS011;2617;51.006;12.436;2024-02-14T05:16:58;1.60;;;1.10;;
5195;SDS011;2617;51.006;12.436;2024-02-14T05:22:01;2.80;;;1.00;;
5195;SDS011;2617;51.006;12.436;2024-02-14T05:27:04;0.93;;;0.80;;
5195;SDS011;2617;51.006;12.436;2024-02-14T05:32:06;0.87;;;0.87;;
5195;SDS011;2617;51.006;12.436;2024-02-14T05:37:08;1.67;;;1.57;;
5195;SDS011;2617;51.006;12.436;2024-02-14T05:42:11;1.00;;;1.00;;
5195;SDS011;2617;51.006;12.436;2024-02-14T05:47:15;0.97;;;0.97;;
5195;SDS011;2617;51.006;12.436;2024-02-14T05:52:17;2.60;;;1.10;;
5195;SDS011;2617;51.006;12.436;2024-02-14T05:57:21;3.78;;;0.88;;
5195;SDS011;2617;51.006;12.436;2024-02-14T06:02:24;2.70;;;1.00;;
5195;SDS011;2617;51.006;12.436;2024-02-14T06:07:27;2.10;;;1.60;;
5195;SDS011;2617;51.006;12.436;2024-02-14T06:12:29;1.17;;;1.03;;
5195;SDS011;2617;51.006;12.436;2024-02-14T06:17:32;2.53;;;0.93;;
5195;SDS011;2617;51.006;12.436;2024-02-14T06:22:34;1.10;;;0.90;;
5195;SDS011;2617;51.006;12.436;2024-02-14T06:27:36;1.05;;;1.05;;
5195;SDS011;2617;51.006;12.436;2024-02-14T06:32:40;1.00;;;0.77;;
5195;SDS011;2617;51.006;12.436;2024-02-14T06:37:42;2.00;;;1.00;;
5195;SDS011;2617;51.006;12.436;2024-02-14T06:42:45;3.70;;;0.80;;
5195;SDS011;2617;51.006;12.436;2024-02-14T06:47:49;1.37;;;0.80;;
5195;SDS011;2617;51.006;12.436;2024-02-14T06:52:52;1.37;;;0.80;;
5195;SDS011;2617;51.006;12.436;2024-02-14T06:57:55;3.13;;;0.90;;
5195;SDS011;2617;51.006;12.436;2024-02-14T07:02:57;1.23;;;0.70;;
5195;SDS011;2617;51.006;12.436;2024-02-14T07:08:00;1.00;;;0.85;;
5195;SDS011;2617;51.006;12.436;2024-02-14T07:13:02;4.03;;;1.20;;
5195;SDS011;2617;51.006;12.436;2024-02-14T07:18:05;0.70;;;0.70;;
5195;SDS011;2617;51.006;12.436;2024-02-14T07:23:08;2.80;;;1.00;;
5195;SDS011;2617;51.006;12.436;2024-02-14T07:28:11;9.03;;;1.10;;
5195;SDS011;2617;51.006;12.436;2024-02-14T07:33:13;0.80;;;0.80;;
5195;SDS011;2617;51.006;12.436;2024-02-14T07:38:16;1.20;;;1.20;;
5195;SDS011;2617;51.006;12.436;2024-02-14T07:43:18;5.30;;;1.17;;
5195;SDS011;2617;51.006;12.436;2024-02-14T07:48:21;2.80;;;0.90;;
5195;SDS011;2617;51.006;12.436;2024-02-14T07:53:24;1.20;;;1.10;;
5195;SDS011;2617;51.006;12.436;2024-02-14T07:58:26;3.10;;;1.13;;
5195;SDS011;2617;51.006;12.436;2024-02-14T08:03:29;1.15;;;0.82;;
5195;SDS011;2617;51.006;12.436;2024-02-14T08:08:31;0.80;;;0.80;;
5195;SDS011;2617;51.006;12.436;2024-02-14T08:13:34;1.30;;;0.85;;
5195;SDS011;2617;51.006;12.436;2024-02-14T08:18:36;1.10;;;1.00;;
5195;SDS011;2617;51.006;12.436;2024-02-14T08:23:39;1.43;;;0.80;;
5195;SDS011;2617;51.006;12.436;2024-02-14T08:28:42;1.10;;;1.00;;
5195;SDS011;2617;51.006;12.436;2024-02-14T08:33:45;2.00;;;0.80;;
5195;SDS011;2617;51.006;12.436;2024-02-14T08:38:48;2.30;;;1.47;;
5195;SDS011;2617;51.006;12.436;2024-02-14T08:43:50;1.70;;;1.10;;
5195;SDS011;2617;51.006;12.436;2024-02-14T08:48:54;1.22;;;0.80;;
5195;SDS011;2617;51.006;12.436;2024-02-14T08:53:57;0.97;;;0.93;;
5195;SDS011;2617;51.006;12.436;2024-02-14T08:59:00;2.73;;;1.20;;
5195;SDS011;2617;51.006;12.436;2024-02-14T09:04:02;2.67;;;1.23;;
5195;SDS011;2617;51.006;12.436;2024-02-14T09:09:05;1.20;;;1.10;;
5195;SDS011;2617;51.006;12.436;2024-02-14T09:14:07;0.90;;;0.90;;
5195;SDS011;2617;51.006;12.436;2024-02-14T09:19:10;1.97;;;1.50;;
5195;SDS011;2617;51.006;12.436;2024-02-14T09:24:12;4.90;;;1.63;;
5195;SDS011;2617;51.006;12.436;2024-02-14T09:29:15;2.03;;;1.00;;
5195;SDS011;2617;51.006;12.436;2024-02-14T09:34:17;1.20;;;0.80;;
5195;SDS011;2617;51.006;12.436;2024-02-14T09:39:20;1.13;;;1.07;;
5195;SDS011;2617;51.006;12.436;2024-02-14T09:44:22;1.67;;;1.10;;
5195;SDS011;2617;51.006;12.436;2024-02-14T09:49:25;2.30;;;1.00;;
5195;SDS011;2617;51.006;12.436;2024-02-14T09:54:28;2.60;;;1.27;;
5195;SDS011;2617;51.006;12.436;2024-02-14T09:59:30;1.98;;;1.22;;
5195;SDS011;2617;51.006;12.436;2024-02-14T10:04:33;1.00;;;1.00;;
5195;SDS011;2617;51.006;12.436;2024-02-14T10:09:40;0.93;;;0.90;;
5195;SDS011;2617;51.006;12.436;2024-02-14T10:14:43;1.27;;;0.97;;
5195;SDS011;2617;51.006;12.436;2024-02-14T10:24:59;1.60;;;1.13;;
5195;SDS011;2617;51.006;12.436;2024-02-14T10:30:01;3.63;;;1.10;;
5195;SDS011;2617;51.006;12.436;2024-02-14T10:35:04;3.20;;;1.08;;
5195;SDS011;2617;51.006;12.436;2024-02-14T10:40:07;0.88;;;0.77;;
5195;SDS011;2617;51.006;12.436;2024-02-14T10:45:10;1.30;;;1.00;;
5195;SDS011;2617;51.006;12.436;2024-02-14T10:50:13;2.30;;;0.83;;
5195;SDS011;2617;51.006;12.436;2024-02-14T10:55:16;0.90;;;0.90;;
5195;SDS011;2617;51.006;12.436;2024-02-14T11:00:19;1.40;;;0.90;;
5195;SDS011;2617;51.006;12.436;2024-02-14T11:05:21;0.90;;;0.90;;
5195;SDS011;2617;51.006;12.436;2024-02-14T11:10:24;1.30;;;1.00;;
5195;SDS011;2617;51.006;12.436;2024-02-14T11:15:27;0.87;;;0.87;;
5195;SDS011;2617;51.006;12.436;2024-02-14T11:20:31;0.87;;;0.83;;
5195;SDS011;2617;51.006;12.436;2024-02-14T11:25:33;1.73;;;1.20;;
5195;SDS011;2617;51.006;12.436;2024-02-14T11:30:36;1.30;;;1.20;;
5195;SDS011;2617;51.006;12.436;2024-02-14T11:35:40;2.97;;;1.03;;
5195;SDS011;2617;51.006;12.436;2024-02-14T11:40:42;1.73;;;1.25;;
5195;SDS011;2617;51.006;12.436;2024-02-14T11:45:46;1.70;;;1.10;;
5195;SDS011;2617;51.006;12.436;2024-02-14T11:50:49;1.20;;;1.10;;
5195;SDS011;2617;51.006;12.436;2024-02-14T11:55:51;1.43;;;0.97;;
5195;SDS011;2617;51.006;12.436;2024-02-14T12:00:54;1.10;;;0.90;;
5195;SDS011;2617;51.006;12.436;2024-02-14T12:05:57;2.20;;;1.10;;
5195;SDS011;2617;51.006;12.436;2024-02-14T12:10:59;1.30;;;1.03;;
5195;SDS011;2617;51.006;12.436;2024-02-14T12:16:02;1.23;;;1.23;;
5195;SDS011;2617;51.006;12.436;2024-02-14T12:21:04;1.37;;;1.10;;
5195;SDS011;2617;51.006;12.436;2024-02-14T12:26:09;2.62;;;1.95;;
5195;SDS011;2617;51.006;12.436;2024-02-14T12:31:12;1.40;;;1.30;;
5195;SDS011;2617;51.006;12.436;2024-02-14T12:36:15;4.68;;;1.50;;
5195;SDS011;2617;51.006;12.436;2024-02-14T12:41:17;1.03;;;1.03;;
5195;SDS011;2617;51.006;12.436;2024-02-14T12:46:20;0.90;;;0.90;;
5195;SDS011;2617;51.006;12.436;2024-02-14T12:51:22;1.53;;;1.37;;
5195;SDS011;2617;51.006;12.436;2024-02-14T12:56:25;2.40;;;1.33;;
5195;SDS011;2617;51.006;12.436;2024-02-14T13:01:29;1.26;;;1.16;;
5195;SDS011;2617;51.006;12.436;2024-02-14T13:06:31;6.20;;;1.80;;
5195;SDS011;2617;51.006;12.436;2024-02-14T13:11:34;1.30;;;1.20;;
5195;SDS011;2617;51.006;12.436;2024-02-14T13:16:37;2.27;;;1.43;;
5195;SDS011;2617;51.006;12.436;2024-02-14T13:21:39;1.50;;;1.37;;
5195;SDS011;2617;51.006;12.436;2024-02-14T13:26:42;3.13;;;1.47;;
5195;SDS011;2617;51.006;12.436;2024-02-14T13:31:44;1.70;;;1.60;;
5195;SDS011;2617;51.006;12.436;2024-02-14T13:36:47;1.33;;;1.30;;
5195;SDS011;2617;51.006;12.436;2024-02-14T13:41:49;1.60;;;1.50;;
5195;SDS011;2617;51.006;12.436;2024-02-14T13:46:52;1.83;;;1.40;;
5195;SDS011;2617;51.006;12.436;2024-02-14T13:51:54;4.10;;;1.80;;
5195;SDS011;2617;51.006;12.436;2024-02-14T13:56:57;1.83;;;1.70;;
5195;SDS011;2617;51.006;12.436;2024-02-14T14:02:00;1.70;;;1.60;;
5195;SDS011;2617;51.006;12.436;2024-02-14T14:07:03;1.43;;;1.33;;
5195;SDS011;2617;51.006;12.436;2024-02-14T14:12:06;1.77;;;1.60;;
5195;SDS011;2617;51.006;12.436;2024-02-14T14:17:08;4.85;;;2.12;;
5195;SDS011;2617;51.006;12.436;2024-02-14T14:22:11;2.25;;;2.05;;
5195;SDS011;2617;51.006;12.436;2024-02-14T14:27:13;1.97;;;1.63;;
5195;SDS011;2617;51.006;12.436;2024-02-14T14:32:17;3.90;;;1.40;;
5195;SDS011;2617;51.006;12.436;2024-02-14T14:37:20;1.40;;;1.30;;
5195;SDS011;2617;51.006;12.436;2024-02-14T14:42:22;2.70;;;1.70;;
5195;SDS011;2617;51.006;12.436;2024-02-14T14:47:25;2.23;;;1.37;;
5195;SDS011;2617;51.006;12.436;2024-02-14T14:52:27;1.53;;;1.43;;
5195;SDS011;2617;51.006;12.436;2024-02-14T14:57:31;1.50;;;1.40;;
5195;SDS011;2617;51.006;12.436;2024-02-14T15:02:34;1.53;;;1.33;;
5195;SDS011;2617;51.006;12.436;2024-02-14T15:07:38;1.60;;;1.27;;
5195;SDS011;2617;51.006;12.436;2024-02-14T15:12:40;3.15;;;1.85;;
5195;SDS011;2617;51.006;12.436;2024-02-14T15:17:43;2.53;;;2.33;;
5195;SDS011;2617;51.006;12.436;2024-02-14T15:22:45;2.10;;;2.00;;
5195;SDS011;2617;51.006;12.436;2024-02-14T15:27:48;2.10;;;2.00;;
5195;SDS011;2617;51.006;12.436;2024-02-14T15:32:58;2.40;;;2.20;;
5195;SDS011;2617;51.006;12.436;2024-02-14T15:38:06;1.50;;;1.40;;
5195;SDS011;2617;51.006;12.436;2024-02-14T15:43:10;1.60;;;1.50;;
5195;SDS011;2617;51.006;12.436;2024-02-14T15:48:12;1.77;;;1.47;;
5195;SDS011;2617;51.006;12.436;2024-02-14T15:53:15;1.83;;;1.70;;
5195;SDS011;2617;51.006;12.436;2024-02-14T15:58:17;2.03;;;1.90;;
5195;SDS011;2617;51.006;12.436;2024-02-14T16:03:19;2.20;;;1.83;;
5195;SDS011;2617;51.006;12.436;2024-02-14T16:08:22;2.10;;;2.00;;
5195;SDS011;2617;51.006;12.436;2024-02-14T16:13:25;1.83;;;1.73;;
5195;SDS011;2617;51.006;12.436;2024-02-14T16:18:28;2.37;;;2.20;;
5195;SDS011;2617;51.006;12.436;2024-02-14T16:23:30;3.00;;;1.53;;
5195;SDS011;2617;51.006;12.436;2024-02-14T16:28:33;4.87;;;2.40;;
5195;SDS011;2617;51.006;12.436;2024-02-14T16:33:35;3.10;;;2.40;;
5195;SDS011;2617;51.006;12.436;2024-02-14T16:38:37;5.03;;;2.40;;
5195;SDS011;2617;51.006;12.436;2024-02-14T16:43:40;5.43;;;2.63;;
5195;SDS011;2617;51.006;12.436;2024-02-14T16:48:42;2.90;;;1.93;;
5195;SDS011;2617;51.006;12.436;2024-02-14T16:53:45;3.00;;;2.10;;
5195;SDS011;2617;51.006;12.436;2024-02-14T16:58:47;2.70;;;2.50;;
5195;SDS011;2617;51.006;12.436;2024-02-14T17:03:50;1.90;;;1.80;;
5195;SDS011;2617;51.006;12.436;2024-02-14T17:08:53;1.70;;;1.60;;
5195;SDS011;2617;51.006;12.436;2024-02-14T17:13:56;1.90;;;1.80;;
5195;SDS011;2617;51.006;12.436;2024-02-14T17:18:59;2.40;;;2.07;;
5195;SDS011;2617;51.006;12.436;2024-02-14T17:24:01;3.25;;;1.80;;
5195;SDS011;2617;51.006;12.436;2024-02-14T17:29:04;1.80;;;1.70;;
5195;SDS011;2617;51.006;12.436;2024-02-14T17:34:07;9.83;;;1.93;;
5195;SDS011;2617;51.006;12.436;2024-02-14T17:39:09;1.70;;;1.60;;
5195;SDS011;2617;51.006;12.436;2024-02-14T17:44:12;2.80;;;2.10;;
5195;SDS011;2617;51.006;12.436;2024-02-14T17:49:14;3.80;;;1.97;;
5195;SDS011;2617;51.006;12.436;2024-02-14T17:54:18;2.85;;;1.83;;
5195;SDS011;2617;51.006;12.436;2024-02-14T17:59:20;2.10;;;2.00;;
5195;SDS011;2617;51.006;12.436;2024-02-14T18:04:23;1.53;;;1.43;;
5195;SDS011;2617;51.006;12.436;2024-02-14T18:09:25;4.33;;;1.77;;
5195;SDS011;2617;51.006;12.436;2024-02-14T18:14:27;4.10;;;1.70;;
5195;SDS011;2617;51.006;12.436;2024-02-14T18:19:30;2.23;;;1.90;;
5195;SDS011;2617;51.006;12.436;2024-02-14T18:24:33;1.83;;;1.70;;
5195;SDS011;2617;51.006;12.436;2024-02-14T18:29:35;1.40;;;1.30;;
5195;SDS011;2617;51.006;12.436;2024-02-14T18:34:37;1.50;;;1.40;;
5195;SDS011;2617;51.006;12.436;2024-02-14T18:39:39;3.33;;;1.77;;
5195;SDS011;2617;51.006;12.436;2024-02-14T18:44:43;1.57;;;1.47;;
5195;SDS011;2617;51.006;12.436;2024-02-14T18:49:45;2.20;;;1.80;;
5195;SDS011;2617;51.006;12.436;2024-02-14T18:54:47;1.87;;;1.77;;
5195;SDS011;2617;51.006;12.436;2024-02-14T18:59:50;2.33;;;2.13;;
5195;SDS011;2617;51.006;12.436;2024-02-14T19:04:52;3.87;;;1.77;;
5195;SDS011;2617;51.006;12.436;2024-02-14T19:09:55;3.03;;;2.40;;
5195;SDS011;2617;51.006;12.436;2024-02-14T19:14:57;2.53;;;1.83;;
5195;SDS011;2617;51.006;12.436;2024-02-14T19:20:00;4.87;;;1.50;;
5195;SDS011;2617;51.006;12.436;2024-02-14T19:25:02;1.90;;;1.70;;
5195;SDS011;2617;51.006;12.436;2024-02-14T19:30:05;3.72;;;1.90;;
5195;SDS011;2617;51.006;12.436;2024-02-14T19:35:08;3.17;;;1.63;;
5195;SDS011;2617;51.006;12.436;2024-02-14T19:40:11;3.30;;;2.10;;
5195;SDS011;2617;51.006;12.436;2024-02-14T19:45:14;2.47;;;1.90;;
5195;SDS011;2617;51.006;12.436;2024-02-14T19:50:17;4.60;;;1.92;;
5195;SDS011;2617;51.006;12.436;2024-02-14T19:55:20;4.30;;;2.85;;
5195;SDS011;2617;51.006;12.436;2024-02-14T20:00:23;2.27;;;2.07;;
5195;SDS011;2617;51.006;12.436;2024-02-14T20:05:25;1.80;;;1.70;;
5195;SDS011;2617;51.006;12.436;2024-02-14T20:10:29;1.80;;;1.70;;
5195;SDS011;2617;51.006;12.436;2024-02-14T20:15:32;1.73;;;1.63;;
5195;SDS011;2617;51.006;12.436;2024-02-14T20:20:35;2.67;;;1.40;;
5195;SDS011;2617;51.006;12.436;2024-02-14T20:25:37;1.43;;;1.33;;
5195;SDS011;2617;51.006;12.436;2024-02-14T20:30:41;1.47;;;1.40;;
5195;SDS011;2617;51.006;12.436;2024-02-14T20:35:43;2.35;;;2.15;;
5195;SDS011;2617;51.006;12.436;2024-02-14T20:40:46;1.70;;;1.60;;
5195;SDS011;2617;51.006;12.436;2024-02-14T20:45:49;1.80;;;1.70;;
5195;SDS011;2617;51.006;12.436;2024-02-14T20:50:52;1.70;;;1.60;;
5195;SDS011;2617;51.006;12.436;2024-02-14T20:55:55;1.87;;;1.77;;
5195;SDS011;2617;51.006;12.436;2024-02-14T21:00:58;2.27;;;1.73;;
5195;SDS011;2617;51.006;12.436;2024-02-14T21:06:00;1.90;;;1.80;;
5195;SDS011;2617;51.006;12.436;2024-02-14T21:11:02;5.50;;;2.00;;
5195;SDS011;2617;51.006;12.436;2024-02-14T21:16:05;2.10;;;2.00;;
5195;SDS011;2617;51.006;12.436;2024-02-14T21:21:08;2.90;;;2.60;;
5195;SDS011;2617;51.006;12.436;2024-02-14T21:26:10;5.23;;;2.67;;
5195;SDS011;2617;51.006;12.436;2024-02-14T21:31:13;2.56;;;2.46;;
5195;SDS011;2617;51.006;12.436;2024-02-14T21:36:15;2.55;;;2.25;;
5195;SDS011;2617;51.006;12.436;2024-02-14T21:41:17;2.30;;;2.20;;
5195;SDS011;2617;51.006;12.436;2024-02-14T21:46:20;3.90;;;2.20;;
5195;SDS011;2617;51.006;12.436;2024-02-14T21:51:23;3.12;;;2.30;;
5195;SDS011;2617;51.006;12.436;2024-02-14T21:56:25;2.47;;;2.17;;
5195;SDS011;2617;51.006;12.436;2024-02-14T22:01:27;2.07;;;1.93;;
5195;SDS011;2617;51.006;12.436;2024-02-14T22:06:30;3.13;;;2.20;;
5195;SDS011;2617;51.006;12.436;2024-02-14T22:11:32;2.83;;;2.63;;
5195;SDS011;2617;51.006;12.436;2024-02-14T22:16:35;2.70;;;2.40;;
5195;SDS011;2617;51.006;12.436;2024-02-14T22:21:38;2.22;;;2.03;;
5195;SDS011;2617;51.006;12.436;2024-02-14T22:26:40;1.97;;;1.87;;
5195;SDS011;2617;51.006;12.436;2024-02-14T22:31:43;2.25;;;1.85;;
5195;SDS011;2617;51.006;12.436;2024-02-14T22:36:45;2.10;;;1.90;;
5195;SDS011;2617;51.006;12.436;2024-02-14T22:41:48;3.10;;;2.20;;
5195;SDS011;2617;51.006;12.436;2024-02-14T22:46:50;5.57;;;2.20;;
5195;SDS011;2617;51.006;12.436;2024-02-14T22:51:53;1.90;;;1.80;;
5195;SDS011;2617;51.006;12.436;2024-02-14T22:56:56;1.62;;;1.52;;
5195;SDS011;2617;51.006;12.436;2024-02-14T23:01:58;2.80;;;2.10;;
5195;SDS011;2617;51.006;12.436;2024-02-14T23:07:01;3.10;;;1.80;;
5195;SDS011;2617;51.006;12.436;2024-02-14T23:12:03;2.10;;;1.80;;
5195;SDS011;2617;51.006;12.436;2024-02-14T23:17:07;1.97;;;1.57;;
5195;SDS011;2617;51.006;12.436;2024-02-14T23:22:09;2.00;;;1.73;;
5195;SDS011;2617;51.006;12.436;2024-02-14T23:27:11;1.90;;;1.80;;
5195;SDS011;2617;51.006;12.436;2024-02-14T23:32:14;2.20;;;2.10;;
5195;SDS011;2617;51.006;12.436;2024-02-14T23:37:17;2.30;;;2.10;;
5195;SDS011;2617;51.006;12.436;2024-02-14T23:42:19;1.87;;;1.73;;
5195;SDS011;2617;51.006;12.436;2024-02-14T23:47:22;2.17;;;1.77;;
5195;SDS011;2617;51.006;12.436;2024-02-14T23:52:24;1.93;;;1.80;;
5195;SDS011;2617;51.006;12.436;2024-02-14T23:57:27;1.93;;;1.60;;
